Terminal Aerodrome Forecast
Issued by NWS

Current Version | Previous Version | Graphics & Text | Print | Product List | Glossary On
Versions: 1 2 3 4 5 6 7 8 9 10 11 12 13 14 15 16 17 18
000
FTUS41 KILN 270534
TAFLCK
TAF
KLCK 270534Z 2706/2806 21007KT P6SM SCT022 SCT060
     FM270900 24006KT P6SM BKN025
     FM271600 24007KT P6SM SCT025 BKN090
     FM272100 20006KT P6SM VCSH SCT025 BKN120
     FM280100 16005KT P6SM -SHRA VCTS SCT025CB BKN070
     FM280300 16006KT 5SM -SHRA VCTS BKN025CB OVC070=

USA.gov is the U.S. government's official web portal to all federal, state and local government web resources and services.